EPWA/WAW METAR and TAF weather

Enter ICAO airport designator
Station Type Date Time Source
EPWA METAR 2020/01/22 12:00 UTC NOAA

EPWA 221200Z 29010KT 9999 BKN013 BKN020 05/03 Q1021 TEMPO SCT013


Station Type Date Time Source
EPWA Decoded METAR 2020/01/22 12:00 UTC NOAA

Warszawa-Okecie, Poland (EPWA) 52-10N 020-58E 107M
Jan 22, 2020 - 07:00 AM EST / 2020.01.22 1200 UTC
Wind: from the WNW (290 degrees) at 12 MPH (10 KT):0
Visibility: greater than 7 mile(s):0
Sky conditions: mostly cloudy
Temperature: 41 F (5 C)
Dew Point: 37 F (3 C)
Relative Humidity: 86%
Pressure (altimeter): 30.15 in. Hg (1021 hPa)
ob: EPWA 221200Z 29010KT 9999 BKN013 BKN020 05/03 Q1021 TEMPO SCT013
cycle: 12

Station Type Date Time Source
EPWA TAF 2020/01/22 12:33 UTC NOAA

TAF EPWA 221130Z 2212/2312 27014KT 9999 BKN015
TEMPO 2212/2216 28018G30KT PROB40
TEMPO 2212/2216 4500 -SHRASN BKN014TCU PROB30 2303/2307 BKN007

Example: see airport list